Time;durP1;ratioP1;P1;durP2;ratioP2;P2;SDS_P1;SDS_P2;PMS_P1;PMS_P2;Temp;Humidity;BMP_temperature;BMP_pressure;BME280_temperature;BME280_humidity;BME280_pressure;Samples;Min_cycle;Max_cycle;Signal;HPM_P1;HPM_P2
2022/08/11 00:01:12;;;;;;;3.33;2.20;;;;;;;24.31;34.49;97855.19;5028722;28;20484;-70
2022/08/11 00:03:44;;;;;;;2.30;2.20;;;;;;;24.33;34.52;97852.28;5030361;28;20442;-70
2022/08/11 00:06:12;;;;;;;2.50;2.30;;;;;;;24.32;34.46;97851.44;5026027;28;20824;-70
2022/08/11 00:08:38;;;;;;;4.00;2.13;;;;;;;24.21;34.51;97852.19;5029691;28;20414;-69
2022/08/11 00:11:06;;;;;;;9.43;2.57;;;;;;;24.16;34.70;97852.06;5033246;28;20457;-69
2022/08/11 00:13:38;;;;;;;3.60;2.20;;;;;;;24.11;34.63;97859.94;5016878;28;20936;-70
2022/08/11 00:16:11;;;;;;;4.77;2.10;;;;;;;24.04;34.78;97849.31;5032847;28;20422;-70
2022/08/11 00:18:42;;;;;;;3.70;2.00;;;;;;;24.02;34.88;97846.88;5025110;28;20452;-69
2022/08/11 00:21:08;;;;;;;4.60;2.30;;;;;;;24.03;34.79;97840.47;5034010;28;20418;-69
2022/08/11 00:23:40;;;;;;;2.93;1.77;;;;;;;24.04;34.86;97850.16;5031509;28;20418;-68
2022/08/11 00:26:06;;;;;;;2.23;2.03;;;;;;;24.08;34.72;97845.16;5020559;28;20492;-67
2022/08/11 00:28:33;;;;;;;2.23;2.03;;;;;;;24.10;34.72;97855.63;5032158;28;20508;-68
2022/08/11 00:31:04;;;;;;;3.70;2.50;;;;;;;24.01;34.69;97855.94;5031823;28;20490;-69
2022/08/11 00:33:37;;;;;;;4.10;2.17;;;;;;;23.89;35.08;97849.66;5022239;28;20426;-68
2022/08/11 00:36:04;;;;;;;3.83;2.07;;;;;;;23.93;34.83;97851.66;5032499;28;20413;-69
2022/08/11 00:38:32;;;;;;;4.07;2.37;;;;;;;23.91;34.94;97852.94;5029488;28;20511;-70
2022/08/11 00:41:23;;;;;;;3.27;1.90;;;;;;;23.89;34.90;97857.69;5033470;28;20957;-69
2022/08/11 00:44:15;;;;;;;4.70;2.07;;;;;;;23.94;35.18;97860.53;5032086;28;20506;-69
2022/08/11 00:46:55;;;;;;;2.33;2.20;;;;;;;23.93;35.15;97864.25;5008548;28;20865;-68
2022/08/11 00:49:30;;;;;;;2.93;2.20;;;;;;;23.89;35.10;97860.38;5031272;28;20450;-68
2022/08/11 00:52:11;;;;;;;3.20;2.10;;;;;;;23.76;35.46;97859.47;5032291;28;20507;-68
2022/08/11 00:54:51;;;;;;;2.60;2.17;;;;;;;23.74;35.41;97853.53;5026591;28;20410;-69
2022/08/11 00:57:44;;;;;;;4.30;1.87;;;;;;;23.72;35.43;97858.28;5031099;28;20456;-68
2022/08/11 01:00:34;;;;;;;3.47;2.13;;;;;;;23.75;35.57;97847.13;5029417;28;20437;-68
2022/08/11 01:03:16;;;;;;;4.20;1.90;;;;;;;23.73;35.40;97856.44;5025630;28;20415;-68
2022/08/11 01:06:03;;;;;;;2.50;2.27;;;;;;;23.63;35.66;97852.38;5029239;28;20418;-69
2022/08/11 01:08:54;;;;;;;3.30;1.93;;;;;;;23.64;35.62;97850.53;5023300;28;20568;-70
2022/08/11 01:11:39;;;;;;;2.80;1.97;;;;;;;23.67;35.46;97852.78;5031736;28;20481;-69
2022/08/11 01:14:23;;;;;;;9.03;2.03;;;;;;;23.72;35.20;97857.47;5031735;28;20422;-69
2022/08/11 01:17:07;;;;;;;2.47;2.27;;;;;;;23.68;35.16;97857.09;5031087;28;20442;-69
2022/08/11 01:19:56;;;;;;;6.07;2.67;;;;;;;23.68;34.64;97851.75;5030899;28;20411;-69
2022/08/11 01:22:41;;;;;;;2.57;1.87;;;;;;;23.69;34.40;97855.22;5014508;28;20419;-70
2022/08/11 01:25:38;;;;;;;6.13;2.23;;;;;;;23.67;34.15;97849.28;5031948;28;20410;-70
2022/08/11 01:28:41;;;;;;;2.80;2.00;;;;;;;23.77;33.73;97855.75;5010862;28;20451;-72
2022/08/11 01:31:54;;;;;;;7.37;1.90;;;;;;;23.81;33.85;97849.97;5032151;28;20464;-71
2022/08/11 01:34:26;;;;;;;10.40;2.37;;;;;;;23.88;33.82;97846.16;5013728;28;20481;-69
2022/08/11 01:37:29;;;;;;;5.30;2.37;;;;;;;23.93;33.58;97840.97;5031571;28;20462;-68
2022/08/11 01:40:19;;;;;;;2.77;2.40;;;;;;;23.93;33.49;97849.00;5029305;28;20964;-69
2022/08/11 01:46:15;;;;;;;2.43;2.10;;;;;;;23.89;33.39;97833.59;5026825;28;20476;-68
2022/08/11 01:48:49;;;;;;;2.53;2.33;;;;;;;23.89;33.31;97841.63;5030458;28;20637;-68
2022/08/11 01:51:32;;;;;;;2.43;2.23;;;;;;;23.95;33.57;97830.03;5031943;28;20443;-69
2022/08/11 01:54:31;;;;;;;4.90;2.17;;;;;;;23.98;33.70;97834.16;5028360;28;20419;-68
2022/08/11 01:57:06;;;;;;;4.90;2.33;;;;;;;23.88;33.62;97826.63;5029938;28;20450;-68
2022/08/11 01:59:35;;;;;;;2.87;1.90;;;;;;;23.81;33.81;97834.72;5027024;28;20774;-67
2022/08/11 02:05:34;;;;;;;2.87;2.30;;;;;;;23.88;33.80;97823.94;5030999;28;20422;-68
2022/08/11 02:08:44;;;;;;;3.10;2.30;;;;;;;23.89;33.76;97825.59;5030000;28;21060;-68
2022/08/11 02:11:32;;;;;;;4.30;2.27;;;;;;;23.90;33.90;97824.53;5028006;28;20826;-69
2022/08/11 02:14:30;;;;;;;2.90;2.30;;;;;;;23.91;33.90;97823.50;5027983;28;20423;-68
2022/08/11 02:17:13;;;;;;;7.63;2.30;;;;;;;23.91;34.00;97820.84;5026777;28;20453;-68
2022/08/11 02:26:19;;;;;;;2.60;2.40;;;;;;;23.80;34.04;97816.22;5028975;28;20413;-68
2022/08/11 02:28:48;;;;;;;3.00;2.30;;;;;;;23.80;34.44;97813.56;5025033;28;20410;-69
2022/08/11 02:34:41;;;;;;;4.40;2.60;;;;;;;23.81;34.88;97813.31;5025131;28;20454;-68
2022/08/11 02:37:16;;;;;;;2.43;2.23;;;;;;;23.74;35.15;97810.72;5026092;28;20466;-68
2022/08/11 02:39:56;;;;;;;3.97;2.70;;;;;;;23.53;35.76;97819.19;5013981;28;20417;-68
2022/08/11 02:42:27;;;;;;;6.63;2.67;;;;;;;23.44;36.08;97815.97;5030989;28;20454;-68
2022/08/11 02:45:04;;;;;;;3.27;2.97;;;;;;;23.37;36.21;97817.91;5031565;28;20422;-70
2022/08/11 02:47:30;;;;;;;2.67;2.47;;;;;;;23.34;36.15;97818.31;5022501;28;20508;-69
2022/08/11 02:50:02;;;;;;;2.60;2.40;;;;;;;23.39;36.28;97821.13;5031307;28;20454;-69
2022/08/11 02:52:47;;;;;;;2.97;2.40;;;;;;;23.40;36.23;97818.25;5031049;28;20233;-68
2022/08/11 02:55:21;;;;;;;6.10;2.63;;;;;;;23.43;36.07;97825.84;5030998;28;20426;-67
2022/08/11 02:57:52;;;;;;;5.03;2.10;;;;;;;23.46;36.15;97824.59;5028320;28;20491;-68
2022/08/11 03:00:18;;;;;;;4.37;2.60;;;;;;;23.42;35.99;97826.91;5028120;28;20466;-69
2022/08/11 03:02:54;;;;;;;3.40;2.40;;;;;;;23.25;36.43;97815.91;5029981;28;20433;-68
2022/08/11 03:05:30;;;;;;;3.07;2.70;;;;;;;23.14;36.78;97829.97;5030779;28;20516;-68
2022/08/11 03:08:30;;;;;;;5.47;2.50;;;;;;;23.06;37.26;97823.03;5025710;28;20541;-68
2022/08/11 03:16:55;;;;;;;2.93;2.73;;;;;;;22.90;37.37;97823.59;5008450;28;20430;-69
2022/08/11 03:19:31;;;;;;;3.60;2.70;;;;;;;22.85;37.55;97830.41;5020007;28;20477;-70
2022/08/11 03:22:20;;;;;;;4.60;2.50;;;;;;;22.80;37.75;97822.22;5035834;28;20425;-69
2022/08/11 03:24:45;;;;;;;2.80;2.53;;;;;;;22.73;37.88;97823.31;5019044;28;20447;-69
2022/08/11 03:27:26;;;;;;;2.77;2.50;;;;;;;22.69;38.25;97833.56;5023109;28;20470;-68
2022/08/11 03:30:09;;;;;;;3.23;2.20;;;;;;;22.64;38.46;97830.75;5030986;28;20270;-70
2022/08/11 03:32:38;;;;;;;3.73;2.67;;;;;;;22.60;38.38;97834.88;5013771;28;20430;-69
2022/08/11 03:35:04;;;;;;;3.60;2.50;;;;;;;22.54;38.73;97842.72;5033316;28;20453;-68
2022/08/11 03:37:55;;;;;;;3.20;2.37;;;;;;;22.52;38.82;97835.94;5032969;28;20465;-68
2022/08/11 03:44:03;;;;;;;6.77;3.30;;;;;;;22.37;39.11;97841.53;5041928;28;20501;-70
2022/08/11 03:46:34;;;;;;;4.40;2.87;;;;;;;22.34;39.14;97845.47;5041130;28;20434;-69
2022/08/11 03:49:27;;;;;;;4.27;2.83;;;;;;;22.31;39.29;97845.03;5037909;28;20423;-69
2022/08/11 03:52:07;;;;;;;4.57;2.93;;;;;;;22.24;39.31;97840.56;5037731;28;20819;-70
2022/08/11 03:54:42;;;;;;;3.00;2.80;;;;;;;22.25;39.44;97844.88;5034591;28;20537;-71
2022/08/11 03:57:13;;;;;;;6.80;2.50;;;;;;;22.21;39.34;97840.19;5038083;28;20453;-69
2022/08/11 03:59:57;;;;;;;5.60;2.80;;;;;;;22.15;39.42;97847.19;5036971;28;20537;-68
2022/08/11 04:03:01;;;;;;;3.37;3.07;;;;;;;22.14;39.18;97844.72;5046524;28;20525;-69
2022/08/11 04:05:49;;;;;;;6.47;2.83;;;;;;;22.15;39.56;97847.19;5002625;28;20516;-69
2022/08/11 04:08:26;;;;;;;3.60;3.03;;;;;;;22.06;39.64;97846.59;5043091;28;20445;-69
2022/08/11 04:11:21;;;;;;;3.10;2.80;;;;;;;21.96;39.88;97845.38;5045409;28;20465;-68
2022/08/11 04:17:35;;;;;;;2.97;2.77;;;;;;;21.97;40.10;97842.53;5035303;28;20983;-70
2022/08/11 04:20:38;;;;;;;3.10;2.90;;;;;;;21.97;39.81;97836.34;5047359;28;20413;-69
2022/08/11 04:23:25;;;;;;;4.27;2.93;;;;;;;21.96;39.82;97840.06;5027277;28;20468;-69
2022/08/11 04:26:21;;;;;;;4.03;3.27;;;;;;;21.97;39.88;97836.34;5024593;28;20847;-71
2022/08/11 04:29:10;;;;;;;3.73;3.10;;;;;;;21.94;40.19;97841.09;5030386;28;20410;-69
2022/08/11 04:32:00;;;;;;;5.13;3.30;;;;;;;21.92;40.15;97839.66;5038240;28;20540;-68
2022/08/11 04:34:36;;;;;;;4.20;3.17;;;;;;;21.88;40.37;97836.59;5035866;28;20417;-70
2022/08/11 04:37:33;;;;;;;6.17;3.40;;;;;;;21.83;40.35;97833.72;5033111;28;20468;-69
2022/08/11 04:40:38;;;;;;;7.17;3.80;;;;;;;21.78;40.82;97841.56;5042731;28;20702;-68
2022/08/11 04:43:37;;;;;;;4.40;3.50;;;;;;;21.76;40.79;97841.75;5016333;28;20563;-69
2022/08/11 04:46:27;;;;;;;4.93;3.60;;;;;;;21.73;41.09;97842.19;5030510;28;20463;-67
2022/08/11 05:04:03;;;;;;;4.07;3.10;;;;;;;21.87;41.00;97842.97;5057104;28;20482;-68
2022/08/11 05:07:11;;;;;;;3.90;3.00;;;;;;;21.96;41.36;97856.06;5026972;28;20422;-69
2022/08/11 05:10:05;;;;;;;8.00;3.60;;;;;;;21.99;41.17;97848.44;5025213;28;20421;-69
2022/08/11 05:12:41;;;;;;;5.40;3.40;;;;;;;22.02;41.32;97850.72;5048677;28;20437;-68
2022/08/11 05:35:22;;;;;;;12.00;4.30;;;;;;;22.41;41.28;97850.81;5029848;28;20980;-71
2022/08/11 05:57:05;;;;;;;6.83;3.10;;;;;;;23.19;40.26;97854.19;5017990;28;20443;-68
2022/08/11 05:59:31;;;;;;;5.67;3.10;;;;;;;23.25;39.97;97847.19;5022929;28;20940;-68
2022/08/11 06:02:02;;;;;;;4.33;3.80;;;;;;;23.39;39.78;97856.75;5017025;28;20427;-67
2022/08/11 06:04:28;;;;;;;4.40;3.10;;;;;;;23.50;38.82;97857.06;5028481;28;20429;-68
2022/08/11 06:06:56;;;;;;;4.00;3.13;;;;;;;23.60;39.01;97854.69;5026398;28;20458;-69
2022/08/11 06:09:33;;;;;;;10.60;3.17;;;;;;;23.78;38.81;97856.56;5020817;28;20431;-69
2022/08/11 06:12:02;;;;;;;6.90;3.03;;;;;;;23.97;38.42;97848.59;5029562;28;21121;-70
2022/08/11 06:14:28;;;;;;;6.10;3.43;;;;;;;24.17;37.95;97853.72;5021803;28;20429;-70
2022/08/11 06:16:58;;;;;;;5.33;3.40;;;;;;;24.26;37.78;97844.31;5022390;28;20458;-70
2022/08/11 06:19:31;;;;;;;12.03;3.30;;;;;;;24.43;37.22;97847.19;5021788;28;20450;-72
2022/08/11 06:21:57;;;;;;;4.33;3.17;;;;;;;24.61;36.79;97843.66;5027139;28;20429;-71
2022/08/11 06:24:22;;;;;;;3.97;3.00;;;;;;;24.74;36.91;97847.22;5021067;28;20436;-72
2022/08/11 06:26:50;;;;;;;5.90;2.97;;;;;;;24.88;36.18;97845.16;5025132;28;20291;-72
2022/08/11 06:29:17;;;;;;;3.43;2.87;;;;;;;25.04;36.02;97851.72;5023413;28;20188;-73
2022/08/11 06:31:51;;;;;;;3.83;3.37;;;;;;;25.17;35.53;97851.53;5020810;28;20462;-69
2022/08/11 06:34:37;;;;;;;5.00;3.13;;;;;;;25.30;35.05;97851.31;5025320;28;20422;-73
2022/08/11 06:37:17;;;;;;;4.20;2.87;;;;;;;25.44;34.83;97851.09;4986809;28;20807;-71
2022/08/11 06:40:03;;;;;;;4.93;3.20;;;;;;;25.54;34.37;97845.97;5025264;28;20418;-71
2022/08/11 06:42:50;;;;;;;5.67;3.00;;;;;;;25.68;34.28;97851.09;5037979;28;20456;-71
2022/08/11 06:45:35;;;;;;;3.93;2.87;;;;;;;25.81;34.18;97853.53;5030984;28;20415;-72
2022/08/11 06:48:01;;;;;;;3.80;3.30;;;;;;;25.89;33.40;97847.78;5030887;28;20496;-70
2022/08/11 06:53:16;;;;;;;5.10;3.23;;;;;;;26.10;33.44;97848.25;5039766;28;20433;-72
2022/08/11 07:01:33;;;;;;;4.90;3.17;;;;;;;26.38;32.62;97849.31;5022838;28;20453;-71
2022/08/11 07:04:06;;;;;;;7.50;3.30;;;;;;;26.41;32.22;97854.22;5021433;28;20459;-72
2022/08/11 07:15:41;;;;;;;8.97;3.00;;;;;;;26.94;31.47;97856.81;5025656;28;20427;-67
2022/08/11 07:29:10;;;;;;;3.20;2.67;;;;;;;27.26;30.82;97849.00;5022784;28;20457;-69
2022/08/11 07:31:50;;;;;;;4.17;2.60;;;;;;;27.40;30.91;97859.44;5019903;28;21000;-70
2022/08/11 07:34:21;;;;;;;4.27;2.90;;;;;;;27.43;30.50;97843.63;5025457;28;20849;-70
2022/08/11 07:36:54;;;;;;;4.07;2.90;;;;;;;27.62;30.33;97842.56;5040180;28;20529;-69
2022/08/11 07:39:23;;;;;;;6.13;3.23;;;;;;;27.73;30.23;97837.06;5029122;28;20809;-70
2022/08/11 07:41:50;;;;;;;4.00;2.90;;;;;;;27.73;30.25;97845.13;5035468;28;21118;-69
2022/08/11 07:44:15;;;;;;;4.90;2.70;;;;;;;27.83;29.88;97835.59;5028603;28;20423;-69
2022/08/11 07:52:31;;;;;;;6.90;3.17;;;;;;;28.15;29.42;97843.00;5029287;28;20425;-69
2022/08/11 07:55:11;;;;;;;12.43;3.00;;;;;;;28.29;29.11;97827.28;5030141;28;20932;-68
2022/08/11 08:19:38;;;;;;;13.20;3.00;;;;;;;29.53;27.26;97826.47;5024035;28;20545;-70
2022/08/11 08:22:04;;;;;;;10.03;3.13;;;;;;;29.58;27.26;97823.00;5013119;28;20430;-71
2022/08/11 08:24:31;;;;;;;4.00;2.80;;;;;;;29.62;26.99;97823.28;5030238;28;20419;-69
2022/08/11 08:26:57;;;;;;;4.27;2.50;;;;;;;29.67;27.32;97818.75;5028681;28;20820;-69
2022/08/11 08:32:10;;;;;;;2.93;2.73;;;;;;;29.82;26.95;97819.88;5033455;28;20276;-71
2022/08/11 08:34:39;;;;;;;2.73;2.50;;;;;;;29.86;27.07;97824.50;5037946;28;20429;-70
2022/08/11 08:37:05;;;;;;;3.30;2.70;;;;;;;29.96;27.04;97822.97;5040967;28;20458;-72
2022/08/11 08:39:36;;;;;;;4.20;3.07;;;;;;;30.05;26.67;97826.75;5030468;28;20425;-69
2022/08/11 08:42:07;;;;;;;3.00;2.40;;;;;;;30.19;26.56;97835.19;5031094;28;20791;-69
2022/08/11 08:44:34;;;;;;;4.00;3.00;;;;;;;30.32;26.17;97829.28;5027602;28;20744;-69
2022/08/11 08:47:00;;;;;;;5.73;2.47;;;;;;;30.47;25.82;97820.41;4996809;28;20853;-69
2022/08/11 08:49:32;;;;;;;2.70;2.50;;;;;;;30.63;25.65;97828.56;5033591;28;20917;-70
2022/08/11 08:52:00;;;;;;;2.83;2.20;;;;;;;30.78;25.15;97825.06;5013786;28;20553;-70
2022/08/11 08:54:41;;;;;;;2.70;2.30;;;;;;;30.77;24.37;97829.66;5033172;28;20431;-69
2022/08/11 08:57:08;;;;;;;6.37;2.67;;;;;;;30.99;24.73;97827.78;4997732;28;21133;-70
2022/08/11 08:59:37;;;;;;;3.93;2.40;;;;;;;31.18;24.56;97822.66;5033565;28;20496;-69
2022/08/11 09:02:04;;;;;;;10.50;2.53;;;;;;;31.36;24.14;97822.13;5031279;28;20995;-69
2022/08/11 09:04:30;;;;;;;9.00;2.20;;;;;;;31.37;23.74;97829.16;5025348;28;20430;-69
2022/08/11 09:06:59;;;;;;;4.57;2.40;;;;;;;31.60;24.18;97826.94;5039468;28;20447;-69
2022/08/11 09:09:24;;;;;;;2.53;2.30;;;;;;;31.67;23.42;97835.56;5033934;28;20441;-71
2022/08/11 09:11:54;;;;;;;2.80;2.50;;;;;;;31.76;23.51;97832.34;5027930;28;20454;-70
2022/08/11 09:14:59;;;;;;;2.90;2.20;;;;;;;31.81;22.91;97833.13;5033982;28;20218;-70
2022/08/11 09:17:10;;;;;;;2.37;2.17;;;;;;;31.73;23.07;97825.56;5032308;28;20453;-69
2022/08/11 09:19:35;;;;;;;2.30;2.10;;;;;;;31.75;22.60;97825.31;5033197;28;20415;-70
2022/08/11 09:27:31;;;;;;;2.30;2.20;;;;;;;31.99;22.61;97825.47;5025324;28;20806;-70
2022/08/11 09:29:57;;;;;;;9.37;2.40;;;;;;;32.15;22.90;97823.50;5031595;28;20422;-70
2022/08/11 09:32:22;;;;;;;2.33;2.10;;;;;;;32.16;22.04;97825.13;5036007;28;20616;-69
2022/08/11 09:34:50;;;;;;;4.07;2.40;;;;;;;32.18;22.25;97822.94;5032442;28;20662;-69
2022/08/11 09:45:30;;;;;;;3.00;2.67;;;;;;;32.68;21.99;97824.84;5024920;28;20978;-70
2022/08/11 09:47:57;;;;;;;2.10;1.90;;;;;;;32.85;21.41;97810.91;5026893;28;20478;-69
2022/08/11 09:50:22;;;;;;;4.20;2.40;;;;;;;32.96;21.20;97817.06;5032223;28;20269;-71
2022/08/11 09:52:49;;;;;;;2.80;2.03;;;;;;;32.88;20.90;97808.47;5027856;28;20847;-68
2022/08/11 09:55:15;;;;;;;4.17;2.00;;;;;;;33.05;21.26;97813.47;5027701;28;20184;-70
2022/08/11 10:00:36;;;;;;;3.70;2.20;;;;;;;32.96;20.84;97811.66;5030019;28;20180;-69
2022/08/11 10:03:05;;;;;;;2.60;2.07;;;;;;;32.67;20.91;97807.78;5032279;28;20422;-69
2022/08/11 10:08:18;;;;;;;3.80;2.03;;;;;;;32.93;20.90;97804.88;5030550;28;20449;-69
2022/08/11 10:10:44;;;;;;;2.53;2.10;;;;;;;33.18;20.99;97805.75;5010948;28;20829;-69
2022/08/11 10:13:15;;;;;;;2.23;2.00;;;;;;;33.39;20.51;97806.41;5015122;28;20515;-69
2022/08/11 10:15:44;;;;;;;2.60;1.83;;;;;;;33.51;20.61;97803.28;5031760;28;20838;-69
2022/08/11 10:21:00;;;;;;;3.43;2.07;;;;;;;33.49;20.00;97803.56;5036259;28;20430;-69
2022/08/11 10:33:58;;;;;;;7.87;2.10;;;;;;;33.54;19.57;97798.06;5032277;28;20914;-68
2022/08/11 10:34:46;;;;;;;2.20;2.00;;;;;;;33.74;19.68;97801.66;5013778;28;20434;-70
2022/08/11 10:37:13;;;;;;;3.53;2.07;;;;;;;33.92;19.33;97799.28;5030048;28;20503;-69
2022/08/11 10:39:39;;;;;;;2.23;1.80;;;;;;;34.06;19.08;97792.03;5029741;28;20437;-69
2022/08/11 10:44:51;;;;;;;3.60;1.73;;;;;;;34.13;18.70;97778.09;5031282;28;20423;-69
2022/08/11 10:47:34;;;;;;;2.63;1.93;;;;;;;34.27;19.07;97786.34;5030910;28;20477;-69
2022/08/11 11:01:08;;;;;;;5.10;1.77;;;;;;;35.04;18.27;97777.00;5030936;28;20503;-70
2022/08/11 11:03:34;;;;;;;1.83;1.67;;;;;;;35.03;18.03;97769.13;5033819;28;20426;-69
2022/08/11 11:06:06;;;;;;;2.27;2.07;;;;;;;35.11;18.11;97770.34;5030819;28;20418;-69
2022/08/11 11:11:19;;;;;;;3.93;1.93;;;;;;;34.95;18.19;97751.56;5032660;28;20459;-68
2022/08/11 11:19:19;;;;;;;7.70;1.97;;;;;;;35.19;18.41;97756.88;5030465;28;20434;-70
2022/08/11 11:21:48;;;;;;;6.33;1.87;;;;;;;35.29;18.37;97744.94;5010017;28;20425;-69
2022/08/11 11:24:40;;;;;;;4.83;1.80;;;;;;;35.26;17.99;97750.19;5036761;28;20921;-70
2022/08/11 11:27:11;;;;;;;4.13;1.93;;;;;;;35.25;17.69;97757.56;5029341;28;20446;-71
2022/08/11 11:30:03;;;;;;;2.53;1.70;;;;;;;35.33;18.14;97740.53;5030873;28;20422;-71
2022/08/11 11:33:10;;;;;;;3.37;2.07;;;;;;;35.50;17.92;97733.69;5029355;28;20487;-70
2022/08/11 11:35:59;;;;;;;2.83;1.70;;;;;;;35.55;17.50;97747.19;5012635;28;20799;-69
2022/08/11 11:38:24;;;;;;;3.43;2.00;;;;;;;35.36;17.46;97729.03;5020002;28;20844;-69
2022/08/11 11:41:23;;;;;;;3.50;1.60;;;;;;;35.59;17.18;97737.31;5035779;28;20430;-69
2022/08/11 11:43:36;;;;;;;5.17;1.80;;;;;;;35.68;16.77;97719.13;5029823;28;20211;-70
2022/08/11 11:46:03;;;;;;;8.43;1.87;;;;;;;35.74;16.76;97722.56;5028477;28;20458;-70
2022/08/11 11:48:29;;;;;;;3.10;1.60;;;;;;;35.84;16.85;97724.25;4996153;28;20460;-69
2022/08/11 11:50:55;;;;;;;3.57;1.40;;;;;;;35.73;16.55;97714.69;5027929;28;20458;-69
2022/08/11 11:53:21;;;;;;;3.13;1.53;;;;;;;35.86;16.73;97716.59;5030714;28;20434;-70
2022/08/11 11:55:46;;;;;;;2.77;1.70;;;;;;;35.70;16.19;97709.84;5025047;28;20262;-70
2022/08/11 12:03:41;;;;;;;2.40;1.87;;;;;;;35.68;16.77;97705.50;5015873;28;20509;-71
2022/08/11 12:06:08;;;;;;;1.80;1.70;;;;;;;35.65;16.57;97727.94;5027202;28;20427;-70
2022/08/11 12:08:35;;;;;;;8.90;1.97;;;;;;;35.55;16.70;97703.59;5028777;28;20465;-69
2022/08/11 12:13:49;;;;;;;1.77;1.67;;;;;;;35.66;15.95;97715.91;5026108;28;20414;-68
2022/08/11 12:16:17;;;;;;;4.30;1.80;;;;;;;35.60;16.21;97698.06;5029046;28;20422;-73
2022/08/11 12:18:46;;;;;;;2.20;1.80;;;;;;;35.61;16.40;97701.56;5029202;28;20468;-68
2022/08/11 12:21:13;;;;;;;3.10;1.60;;;;;;;35.74;16.07;97705.41;5035301;28;20414;-70
2022/08/11 12:29:28;;;;;;;10.10;1.70;;;;;;;35.59;15.84;97692.94;5021516;28;20418;-69
2022/08/11 12:31:54;;;;;;;3.67;1.40;;;;;;;35.61;15.92;97698.84;5026120;28;20493;-70
2022/08/11 12:34:20;;;;;;;2.70;1.60;;;;;;;35.55;16.07;97700.88;5033763;28;20426;-69
2022/08/11 12:36:50;;;;;;;2.37;1.73;;;;;;;35.53;15.88;97689.50;5032715;28;20500;-70
2022/08/11 12:39:20;;;;;;;5.17;1.80;;;;;;;35.62;16.26;97698.56;5036593;28;20191;-69
2022/08/11 12:47:17;;;;;;;3.93;1.50;;;;;;;35.93;16.25;97697.91;5028024;28;20438;-70
2022/08/11 12:52:35;;;;;;;8.70;1.87;;;;;;;35.94;15.89;97680.44;5022195;28;20449;-70
2022/08/11 12:55:08;;;;;;;1.63;1.50;;;;;;;35.91;16.03;97681.03;5028383;28;20431;-70
2022/08/11 13:05:57;;;;;;;1.93;1.70;;;;;;;36.11;15.78;97659.88;4992042;28;20419;-71
2022/08/11 13:08:23;;;;;;;2.83;1.40;;;;;;;36.25;15.89;97654.34;5027993;28;20449;-71
2022/08/11 13:13:36;;;;;;;3.80;1.47;;;;;;;36.11;15.37;97643.53;5037655;28;20421;-70
2022/08/11 13:16:01;;;;;;;4.30;1.93;;;;;;;35.90;15.31;97649.44;5029320;28;20928;-69
2022/08/11 13:18:27;;;;;;;1.60;1.50;;;;;;;35.79;16.02;97648.06;5038333;28;20500;-71
2022/08/11 13:20:54;;;;;;;2.63;1.63;;;;;;;35.92;15.99;97644.47;5033913;28;20246;-69
2022/08/11 13:23:21;;;;;;;5.00;1.63;;;;;;;35.94;15.83;97645.00;5032361;28;20439;-70
2022/08/11 13:25:47;;;;;;;4.77;1.67;;;;;;;35.96;15.79;97650.94;5029549;28;20796;-70
2022/08/11 13:28:12;;;;;;;3.20;1.80;;;;;;;35.90;15.69;97649.44;5033372;28;20533;-70
2022/08/11 13:33:24;;;;;;;2.63;1.47;;;;;;;35.82;15.94;97642.81;5029347;28;20572;-70
2022/08/11 13:35:51;;;;;;;4.60;1.33;;;;;;;35.81;15.75;97634.91;5032496;28;20508;-70
2022/08/11 13:38:18;;;;;;;4.37;1.60;;;;;;;35.90;16.27;97641.25;5014798;28;20848;-70
2022/08/11 13:40:44;;;;;;;1.77;1.60;;;;;;;35.50;15.54;97630.97;5032304;28;20467;-69
2022/08/11 13:43:12;;;;;;;1.67;1.57;;;;;;;35.58;15.82;97637.59;5035631;28;20418;-71
2022/08/11 13:45:38;;;;;;;6.60;1.77;;;;;;;35.69;15.78;97627.28;5033727;28;20771;-70
2022/08/11 13:48:07;;;;;;;2.77;1.97;;;;;;;35.79;15.82;97626.25;5033026;28;20536;-71
2022/08/11 13:53:21;;;;;;;2.30;1.60;;;;;;;35.73;15.83;97631.00;5023202;28;20535;-70
2022/08/11 13:55:46;;;;;;;1.90;1.70;;;;;;;35.75;15.93;97622.53;5027924;28;20434;-69
2022/08/11 13:58:12;;;;;;;4.43;1.73;;;;;;;35.45;15.86;97627.53;5031089;28;20438;-69
2022/08/11 14:00:40;;;;;;;2.50;1.50;;;;;;;35.46;15.78;97632.69;5033162;28;20603;-71
2022/08/11 14:03:08;;;;;;;1.53;1.43;;;;;;;35.50;15.94;97625.50;5015255;28;20593;-71
2022/08/11 14:05:40;;;;;;;2.43;1.57;;;;;;;35.57;16.24;97619.66;5032025;28;20434;-69
2022/08/11 14:08:12;;;;;;;1.60;1.50;;;;;;;35.60;15.80;97613.59;5030832;28;20445;-69
2022/08/11 14:10:38;;;;;;;5.87;1.60;;;;;;;35.60;15.64;97601.91;5026604;28;20462;-70
2022/08/11 14:15:56;;;;;;;1.93;1.60;;;;;;;35.65;15.94;97593.59;5030797;28;20183;-70
2022/08/11 14:18:25;;;;;;;2.90;1.40;;;;;;;35.77;15.94;97590.31;5030720;28;20450;-70
2022/08/11 14:23:41;;;;;;;4.40;1.70;;;;;;;35.81;15.51;97581.22;5031998;28;20418;-70
2022/08/11 14:26:27;;;;;;;3.20;1.50;;;;;;;35.79;15.65;97588.09;4993977;28;20513;-70
2022/08/11 14:28:55;;;;;;;1.50;1.40;;;;;;;35.80;15.60;97584.22;5025542;28;20454;-70
2022/08/11 14:31:26;;;;;;;5.73;1.60;;;;;;;35.58;15.69;97593.22;5016886;28;20462;-70
2022/08/11 14:33:54;;;;;;;3.93;1.37;;;;;;;35.39;15.87;97590.63;5019862;28;20418;-69
2022/08/11 14:36:21;;;;;;;4.93;1.47;;;;;;;35.37;15.73;97593.63;5030757;28;20932;-69
2022/08/11 14:38:47;;;;;;;1.60;1.50;;;;;;;35.37;15.58;97589.00;5031227;28;20442;-69
2022/08/11 14:49:27;;;;;;;4.10;1.67;;;;;;;35.56;16.07;97568.97;5031722;28;20501;-70
2022/08/11 14:51:53;;;;;;;4.97;1.77;;;;;;;35.62;15.90;97562.31;5032456;28;20469;-70
2022/08/11 14:57:06;;;;;;;5.03;1.53;;;;;;;35.39;15.34;97577.00;5027668;28;20953;-70
2022/08/11 14:59:32;;;;;;;4.33;1.60;;;;;;;35.33;15.60;97560.75;5032195;28;20429;-69
2022/08/11 15:04:44;;;;;;;5.07;1.47;;;;;;;35.28;15.65;97569.06;5019820;28;20282;-71
2022/08/11 15:07:10;;;;;;;3.10;1.50;;;;;;;35.16;15.67;97568.78;5031292;28;20446;-70
2022/08/11 15:09:37;;;;;;;5.97;1.40;;;;;;;35.12;15.68;97570.47;5032320;28;20562;-70
2022/08/11 15:12:15;;;;;;;4.53;1.53;;;;;;;35.14;15.52;97565.53;5031046;28;20250;-70
2022/08/11 15:17:32;;;;;;;2.23;1.53;;;;;;;34.89;15.55;97567.66;5013759;28;20439;-69
2022/08/11 15:25:33;;;;;;;2.30;1.40;;;;;;;34.84;15.34;97554.97;5031284;28;20492;-70
2022/08/11 15:39:01;;;;;;;2.60;1.63;;;;;;;34.53;15.75;97538.44;5026071;28;20446;-70
2022/08/11 15:45:47;;;;;;;5.60;1.60;;;;;;;34.55;16.12;97533.47;5030006;28;21051;-69
2022/08/11 15:47:26;;;;;;;4.03;1.53;;;;;;;34.56;15.69;97526.94;5028629;28;20434;-69
2022/08/11 15:49:54;;;;;;;1.50;1.40;;;;;;;34.55;15.96;97533.47;5029949;28;20422;-70
2022/08/11 15:52:26;;;;;;;1.80;1.70;;;;;;;34.45;15.63;97532.56;5029727;28;20458;-69
2022/08/11 15:54:52;;;;;;;1.80;1.70;;;;;;;34.36;15.83;97528.09;5013049;28;20953;-70
2022/08/11 16:05:19;;;;;;;2.50;1.47;;;;;;;33.98;15.72;97527.13;5029587;28;20425;-71
2022/08/11 16:07:48;;;;;;;3.00;1.70;;;;;;;33.92;15.79;97530.22;5029222;28;20434;-70
2022/08/11 16:10:20;;;;;;;4.70;1.70;;;;;;;33.74;15.97;97523.69;5025109;28;20175;-69
2022/08/11 16:18:39;;;;;;;3.17;1.90;;;;;;;33.47;16.78;97517.88;5031782;28;21817;-68
2022/08/11 16:21:09;;;;;;;4.40;1.70;;;;;;;33.50;16.80;97509.13;5031216;28;20414;-70
2022/08/11 16:23:35;;;;;;;4.43;1.60;;;;;;;33.53;16.94;97508.53;5029701;28;20423;-70
2022/08/11 16:26:01;;;;;;;4.60;1.70;;;;;;;33.56;16.77;97509.03;5030658;28;20484;-71
2022/08/11 16:28:28;;;;;;;5.80;1.53;;;;;;;33.54;16.70;97509.34;5029475;28;20865;-69
2022/08/11 16:30:54;;;;;;;4.10;1.60;;;;;;;33.45;16.94;97500.25;5030805;28;20207;-69
2022/08/11 16:33:23;;;;;;;1.63;1.53;;;;;;;33.34;16.87;97505.00;5027325;28;20423;-69
2022/08/11 16:38:35;;;;;;;2.80;1.73;;;;;;;33.09;17.38;97505.06;5028479;28;20446;-69
2022/08/11 16:46:58;;;;;;;6.80;1.50;;;;;;;33.05;17.08;97506.75;5029358;28;20815;-69
2022/08/11 16:46:58;;;;;;;2.43;1.43;;;;;;;32.81;17.44;97498.66;5026753;28;20516;-70
2022/08/11 16:49:30;;;;;;;8.83;1.80;;;;;;;32.80;17.54;97499.75;5029437;28;20426;-72
2022/08/11 16:51:56;;;;;;;4.90;1.87;;;;;;;32.77;17.25;97497.56;5034527;28;20462;-68
2022/08/11 16:54:22;;;;;;;3.57;1.97;;;;;;;32.68;17.64;97504.75;5037655;28;20929;-71
2022/08/11 16:56:52;;;;;;;3.00;1.80;;;;;;;32.59;17.51;97513.53;5032373;28;20218;-69
2022/08/11 16:59:25;;;;;;;2.20;2.00;;;;;;;32.55;17.34;97503.56;5033362;28;20196;-70
2022/08/11 17:01:53;;;;;;;4.37;2.20;;;;;;;32.47;17.67;97510.41;5043248;28;20575;-70